Time;durP1;ratioP1;P1;durP2;ratioP2;P2;SDS_P1;SDS_P2;PMS_P1;PMS_P2;Temp;Humidity;BMP_temperature;BMP_pressure;BME280_temperature;BME280_humidity;BME280_pressure;Samples;Min_cycle;Max_cycle;Signal;HPM_P1;HPM_P2
2022/02/05 00:05:20;;;;;;;4.47;1.70;;;;;;;4.91;76.88;101695.28;5025121;28;20283;-79
2022/02/05 00:07:54;;;;;;;4.90;1.20;;;;;;;4.88;77.15;101701.38;5046320;28;20055;-79
2022/02/05 00:13:06;;;;;;;3.50;1.20;;;;;;;4.88;77.61;101698.78;5049398;28;20100;-79
2022/02/05 00:40:03;;;;;;;6.47;1.30;;;;;;;4.87;77.06;101719.53;5051389;28;20110;-79
2022/02/05 00:42:39;;;;;;;10.02;2.05;;;;;;;4.87;77.50;101722.97;5061653;28;20099;-79
2022/02/05 00:45:08;;;;;;;11.82;2.00;;;;;;;4.87;77.36;101716.94;5092729;28;20040;-79
2022/02/05 00:47:35;;;;;;;6.53;2.13;;;;;;;4.86;77.89;101715.19;5079480;28;20382;-79
2022/02/05 00:50:03;;;;;;;7.07;2.10;;;;;;;4.86;77.40;101718.69;5060682;28;20202;-79
2022/02/05 00:52:28;;;;;;;5.53;1.48;;;;;;;4.83;77.61;101725.63;5073849;28;20037;-79
2022/02/05 00:55:02;;;;;;;8.00;1.58;;;;;;;4.79;77.70;101730.81;5030485;28;20262;-79
2022/02/05 00:59:55;;;;;;;14.65;1.75;;;;;;;4.78;77.67;101756.75;5042461;28;20202;-79
2022/02/05 01:02:21;;;;;;;7.13;1.63;;;;;;;4.76;77.95;101736.00;5020867;28;20029;-79
2022/02/05 01:04:47;;;;;;;8.43;1.23;;;;;;;4.77;77.96;101737.72;5076666;28;20098;-79
2022/02/05 01:07:12;;;;;;;9.20;1.15;;;;;;;4.76;78.03;101751.56;5064898;28;20341;-79
2022/02/05 01:09:40;;;;;;;13.30;1.65;;;;;;;4.74;77.83;101750.69;5079333;28;20258;-79
2022/02/05 01:12:05;;;;;;;7.32;1.42;;;;;;;4.74;78.14;101753.28;5094955;28;20355;-79
2022/02/05 01:14:42;;;;;;;6.07;1.20;;;;;;;4.73;77.79;101743.81;5064754;28;20048;-79
2022/02/05 01:17:09;;;;;;;7.90;1.10;;;;;;;4.74;77.99;101753.28;5098994;28;20060;-79
2022/02/05 01:20:02;;;;;;;12.43;1.88;;;;;;;4.73;77.94;101759.38;5079705;28;20027;-79
2022/02/05 01:22:23;;;;;;;9.00;1.60;;;;;;;4.71;78.04;101761.09;5083069;28;20059;-79
2022/02/05 01:24:51;;;;;;;8.63;1.42;;;;;;;4.70;78.22;101758.50;5062120;28;20047;-79
2022/02/05 01:27:30;;;;;;;7.03;1.55;;;;;;;4.69;78.24;101765.41;5087700;28;20280;-79
2022/02/05 01:32:33;;;;;;;6.78;1.33;;;;;;;4.73;78.41;101759.38;5077432;28;20040;-79
2022/02/05 01:35:07;;;;;;;5.40;1.07;;;;;;;4.73;78.42;101772.34;5044479;28;20032;-79
2022/02/05 01:58:52;;;;;;;5.53;1.40;;;;;;;4.67;78.67;101811.25;5097486;28;20331;-79
2022/02/05 02:11:57;;;;;;;5.82;1.05;;;;;;;4.67;78.63;101829.44;5098275;28;20087;-79
2022/02/05 02:22:08;;;;;;;8.85;1.38;;;;;;;4.68;79.26;101832.91;5098429;28;20036;-79
2022/02/05 02:24:54;;;;;;;9.75;1.52;;;;;;;4.68;79.48;101831.16;5064531;28;20477;-79
2022/02/05 02:30:31;;;;;;;11.82;1.60;;;;;;;4.67;79.86;101839.81;5034994;28;20081;-79
2022/02/05 02:33:08;;;;;;;;;;;;;;;4.66;80.14;101848.47;5033889;28;20117;-79
2022/02/05 02:35:38;;;;;;;12.38;1.67;;;;;;;4.65;80.43;101846.72;5069459;28;19930;-79
2022/02/05 02:38:10;;;;;;;6.20;1.75;;;;;;;4.65;80.52;101857.09;5096772;28;20346;-79
2022/02/05 02:40:45;;;;;;;9.80;1.98;;;;;;;4.68;80.71;101851.06;5063162;28;20048;-79
2022/02/05 02:43:17;;;;;;;11.20;1.48;;;;;;;4.69;80.53;101853.63;5077901;28;20035;-79
2022/02/05 02:45:45;;;;;;;5.55;1.40;;;;;;;4.70;80.39;101857.13;5076674;28;20392;-79
2022/02/05 02:48:11;;;;;;;6.63;1.10;;;;;;;4.70;80.22;101865.75;5044041;28;20035;-79
2022/02/05 02:58:49;;;;;;;7.57;1.35;;;;;;;4.69;80.34;101869.22;5048611;28;20101;-79
2022/02/05 03:01:18;;;;;;;17.88;2.28;;;;;;;4.70;80.13;101875.28;5043640;28;20037;-79
2022/02/05 03:03:44;;;;;;;;;;;;;;;4.71;80.23;101877.00;5078296;28;20047;-79
2022/02/05 03:06:09;;;;;;;9.80;1.50;;;;;;;4.72;80.21;101873.56;5080558;28;19908;-79
2022/02/05 03:08:34;;;;;;;11.45;1.67;;;;;;;4.70;80.44;101881.34;5063816;28;20204;-79
2022/02/05 03:11:00;;;;;;;7.45;1.98;;;;;;;4.72;79.94;101881.34;5063544;28;20059;-79
2022/02/05 03:13:25;;;;;;;7.50;1.48;;;;;;;4.72;80.38;101881.34;5081503;28;20189;-79
2022/02/05 03:15:52;;;;;;;11.68;1.73;;;;;;;4.72;80.20;101878.75;5081682;28;20032;-79
2022/02/05 03:21:06;;;;;;;6.28;1.38;;;;;;;4.71;79.71;101889.97;5020837;28;20323;-78
2022/02/05 03:23:31;;;;;;;12.05;1.75;;;;;;;4.71;80.04;101888.28;5030166;28;20028;-78
2022/02/05 03:25:57;;;;;;;7.72;1.50;;;;;;;4.69;79.94;101887.38;5063066;28;20372;-78
2022/02/05 03:28:22;;;;;;;13.20;2.08;;;;;;;4.67;80.16;101889.09;5063533;28;20036;-78
2022/02/05 03:30:48;;;;;;;4.97;1.45;;;;;;;4.66;80.02;101887.41;5083013;28;20056;-78
2022/02/05 03:33:13;;;;;;;11.60;1.42;;;;;;;4.66;80.51;101887.41;5083443;28;20032;-78
2022/02/05 03:35:38;;;;;;;8.55;1.70;;;;;;;4.68;80.08;101890.00;5087431;28;20024;-78
2022/02/05 03:38:04;;;;;;;6.22;1.33;;;;;;;4.67;80.26;101888.25;5056922;28;20055;-78
2022/02/05 03:40:29;;;;;;;15.70;2.58;;;;;;;4.63;79.87;101902.09;5094397;28;20347;-78
2022/02/05 03:42:54;;;;;;;9.38;1.27;;;;;;;4.62;80.43;101890.84;5100998;28;20028;-78
2022/02/05 03:45:20;;;;;;;11.15;1.67;;;;;;;4.62;80.39;101896.06;5082848;28;20024;-78
2022/02/05 03:47:46;;;;;;;8.18;1.63;;;;;;;4.60;80.18;101895.16;5066506;28;20040;-78
2022/02/05 03:50:12;;;;;;;8.18;1.30;;;;;;;4.61;80.44;101904.69;5066022;28;20350;-78
2022/02/05 03:52:38;;;;;;;9.90;1.95;;;;;;;4.60;80.57;101906.41;5066066;28;20039;-78
2022/02/05 03:55:04;;;;;;;4.43;1.70;;;;;;;4.59;80.46;101911.59;5065885;28;20038;-78
2022/02/05 03:57:29;;;;;;;12.52;2.38;;;;;;;4.60;80.46;101919.41;5081754;28;20305;-78
2022/02/05 03:59:55;;;;;;;9.48;1.75;;;;;;;4.58;80.63;101915.94;5071431;28;20217;-78
2022/02/05 04:02:20;;;;;;;9.40;1.85;;;;;;;4.56;80.73;101916.78;5040565;28;20186;-78
2022/02/05 04:04:46;;;;;;;10.65;2.25;;;;;;;4.56;80.58;101916.78;5072231;28;20050;-78
2022/02/05 04:07:11;;;;;;;21.85;2.28;;;;;;;4.55;80.68;101928.03;5099356;28;20219;-78
2022/02/05 04:09:41;;;;;;;9.65;1.20;;;;;;;4.56;80.71;101930.59;5062349;28;20036;-78
2022/02/05 04:17:36;;;;;;;11.48;2.28;;;;;;;4.54;80.79;101931.47;5080197;28;20043;-78
2022/02/05 04:20:02;;;;;;;8.15;1.65;;;;;;;4.54;80.83;101939.25;5046967;28;20103;-78
2022/02/05 04:22:28;;;;;;;4.78;1.75;;;;;;;4.51;80.76;101953.09;5099433;28;20027;-78
2022/02/05 04:24:53;;;;;;;9.50;1.80;;;;;;;4.55;80.89;101953.97;5082289;28;20028;-78
2022/02/05 04:27:19;;;;;;;8.25;1.48;;;;;;;4.54;81.04;101952.22;5082382;28;20047;-78
2022/02/05 04:29:44;;;;;;;9.18;1.85;;;;;;;4.54;81.07;101942.72;5099654;28;20060;-78
2022/02/05 04:32:13;;;;;;;10.40;1.63;;;;;;;4.51;81.23;101955.69;5082097;28;20106;-78
2022/02/05 04:34:38;;;;;;;;;;;;;;;4.52;81.27;101961.75;5099611;28;20038;-78
2022/02/05 04:37:05;;;;;;;15.68;1.83;;;;;;;4.51;81.47;101952.22;5098674;28;19907;-78
2022/02/05 04:39:31;;;;;;;7.63;1.90;;;;;;;4.50;81.48;101955.69;5082229;28;20024;-78
2022/02/05 04:42:14;;;;;;;8.98;2.00;;;;;;;4.48;81.81;101955.69;5099269;28;20286;-78
2022/02/05 04:52:40;;;;;;;5.63;1.65;;;;;;;4.43;81.93;101967.78;5098428;28;20047;-78
2022/02/05 04:55:27;;;;;;;9.05;1.95;;;;;;;4.45;81.99;101967.78;5098506;28;20040;-78
2022/02/05 04:58:07;;;;;;;13.50;1.80;;;;;;;4.46;82.40;101965.19;5099478;28;20163;-78
2022/02/05 05:06:12;;;;;;;10.05;1.50;;;;;;;4.45;82.69;101970.38;5082889;28;20044;-78
2022/02/05 05:11:39;;;;;;;7.60;1.40;;;;;;;4.43;82.56;101967.78;5090810;28;20082;-78
2022/02/05 05:22:00;;;;;;;5.95;1.65;;;;;;;4.39;82.91;101985.06;5076859;28;20403;-78
2022/02/05 05:24:26;;;;;;;4.43;1.85;;;;;;;4.38;82.99;101979.84;5079295;28;20373;-78
2022/02/05 05:26:52;;;;;;;12.93;2.03;;;;;;;4.40;82.89;101988.50;5074828;28;20035;-78
2022/02/05 05:29:19;;;;;;;10.55;1.75;;;;;;;4.36;83.11;101989.38;5097063;28;20036;-78
2022/02/05 05:31:44;;;;;;;8.95;1.67;;;;;;;4.35;83.13;101985.91;5099102;28;20089;-78
2022/02/05 05:34:09;;;;;;;10.30;2.15;;;;;;;4.35;82.39;101988.50;5064299;28;20039;-78
2022/02/05 05:36:35;;;;;;;10.63;1.83;;;;;;;4.37;82.43;101985.91;5063971;28;20032;-78
2022/02/05 05:39:02;;;;;;;2.63;1.13;;;;;;;4.39;82.59;101989.38;5080397;28;20111;-78
2022/02/05 05:41:34;;;;;;;12.00;1.70;;;;;;;4.37;82.12;101994.56;5064487;28;20059;-78
2022/02/05 05:46:41;;;;;;;5.88;1.25;;;;;;;4.36;81.76;101987.63;5099306;28;20075;-78
2022/02/05 05:51:35;;;;;;;5.93;1.55;;;;;;;4.36;81.10;101994.56;5097628;28;20040;-78
2022/02/05 05:54:00;;;;;;;8.27;1.50;;;;;;;4.35;81.26;101985.91;5080519;28;20414;-78
2022/02/05 05:56:26;;;;;;;4.75;1.30;;;;;;;4.32;81.06;101985.88;5097298;28;20032;-78
2022/02/05 05:58:51;;;;;;;8.35;1.63;;;;;;;4.30;81.34;101982.44;5098533;28;20047;-78
2022/02/05 06:01:17;;;;;;;9.10;1.55;;;;;;;4.30;81.01;101991.94;5097470;28;20051;-78
2022/02/05 06:03:42;;;;;;;9.68;1.52;;;;;;;4.31;81.02;101989.38;5097844;28;20398;-78
2022/02/05 06:06:08;;;;;;;3.25;0.95;;;;;;;4.31;81.24;101993.66;5098357;28;20078;-78
2022/02/05 06:08:33;;;;;;;14.25;2.13;;;;;;;4.29;80.87;101992.78;5080595;28;20035;-78
2022/02/05 06:10:58;;;;;;;11.20;1.80;;;;;;;4.26;80.64;101997.97;5097092;28;20224;-78
2022/02/05 06:13:24;;;;;;;5.95;1.67;;;;;;;4.23;80.97;101996.22;5097334;28;20117;-78
2022/02/05 06:15:52;;;;;;;10.93;1.42;;;;;;;4.22;80.88;101991.88;5098129;28;20047;-78
2022/02/05 06:18:17;;;;;;;12.73;1.67;;;;;;;4.19;81.05;101995.34;5097067;28;20028;-78
2022/02/05 06:20:43;;;;;;;8.93;1.60;;;;;;;4.19;81.08;102000.53;5060124;28;20434;-78
2022/02/05 06:23:08;;;;;;;8.80;1.52;;;;;;;4.21;81.28;102004.00;5059774;28;20127;-78
2022/02/05 06:25:35;;;;;;;13.88;2.15;;;;;;;4.21;81.24;102008.31;5059462;28;20039;-78
2022/02/05 06:28:01;;;;;;;9.63;1.50;;;;;;;4.19;81.37;102005.72;5084100;28;20040;-78
2022/02/05 06:30:27;;;;;;;12.32;2.05;;;;;;;4.21;81.43;102005.72;5060784;28;20092;-78
2022/02/05 06:32:52;;;;;;;10.70;1.67;;;;;;;4.21;81.47;102005.72;5081981;28;20085;-78
2022/02/05 06:35:17;;;;;;;5.18;1.70;;;;;;;4.23;81.77;102011.78;5098051;28;20087;-78
2022/02/05 06:37:43;;;;;;;7.13;1.50;;;;;;;4.26;81.67;102013.50;5063495;28;20044;-78
2022/02/05 06:40:09;;;;;;;12.35;1.77;;;;;;;4.27;81.84;102018.72;5062227;28;20332;-78
2022/02/05 06:42:35;;;;;;;7.45;1.42;;;;;;;4.29;82.00;102010.94;5063889;28;20032;-78
2022/02/05 06:45:01;;;;;;;2.90;1.08;;;;;;;4.34;82.21;102024.81;5063848;28;20024;-78
2022/02/05 06:47:27;;;;;;;5.13;1.50;;;;;;;4.35;82.43;102024.81;5081898;28;20423;-78
2022/02/05 06:49:52;;;;;;;7.25;1.95;;;;;;;4.41;82.69;102029.16;5081838;28;20063;-78
2022/02/05 06:52:17;;;;;;;4.65;1.30;;;;;;;4.41;82.43;102024.81;5098009;28;20054;-78
2022/02/05 06:54:43;;;;;;;8.30;1.20;;;;;;;4.40;82.44;102036.09;5101449;28;20035;-78
2022/02/05 06:57:08;;;;;;;5.43;1.40;;;;;;;4.36;82.53;102030.88;5083860;28;20043;-78
2022/02/05 06:59:33;;;;;;;9.85;1.85;;;;;;;4.32;82.56;102024.78;5083867;28;20323;-78
2022/02/05 07:01:59;;;;;;;7.03;1.65;;;;;;;4.32;82.71;102029.97;5066698;28;20028;-78
2022/02/05 07:04:26;;;;;;;4.60;1.73;;;;;;;4.29;82.67;102037.72;5082642;28;20069;-78
2022/02/05 07:06:54;;;;;;;8.20;1.23;;;;;;;4.29;82.85;102031.69;5066975;28;20120;-78
2022/02/05 07:09:24;;;;;;;8.95;1.85;;;;;;;4.26;82.69;102037.75;5073758;28;20040;-78
2022/02/05 07:11:55;;;;;;;9.40;2.25;;;;;;;4.25;82.94;102046.38;5096540;28;20217;-78
2022/02/05 07:14:24;;;;;;;9.13;1.50;;;;;;;4.23;82.87;102043.75;5095003;28;20032;-78
2022/02/05 07:16:57;;;;;;;13.68;2.05;;;;;;;4.20;82.86;102040.28;5094439;28;20074;-78
2022/02/05 07:19:41;;;;;;;7.40;1.85;;;;;;;4.19;82.43;102048.94;5067533;28;20068;-78
2022/02/05 07:22:06;;;;;;;8.65;2.38;;;;;;;4.20;82.78;102058.44;5060573;28;20043;-78
2022/02/05 07:30:07;;;;;;;8.93;1.55;;;;;;;4.19;83.23;102074.88;5063717;28;20371;-78
2022/02/05 07:32:33;;;;;;;7.47;1.63;;;;;;;4.17;83.27;102081.78;5077934;28;20255;-78
2022/02/05 07:34:59;;;;;;;11.63;1.98;;;;;;;4.13;83.46;102087.78;5046246;28;20266;-78
2022/02/05 07:37:25;;;;;;;10.90;1.75;;;;;;;4.12;83.66;102081.75;5073889;28;20040;-78
2022/02/05 07:39:50;;;;;;;9.75;2.30;;;;;;;4.10;83.63;102083.47;5061933;28;20059;-78
2022/02/05 07:42:18;;;;;;;7.35;2.00;;;;;;;4.06;83.69;102081.72;5049383;28;20036;-78
2022/02/05 07:44:43;;;;;;;5.43;1.60;;;;;;;4.06;83.96;102094.69;5079374;28;20051;-78
2022/02/05 07:47:09;;;;;;;5.38;1.60;;;;;;;4.07;83.88;102091.22;5070768;28;20040;-78
2022/02/05 07:49:39;;;;;;;11.80;2.13;;;;;;;4.06;84.06;102080.81;5073980;28;20024;-78
2022/02/05 07:52:05;;;;;;;6.15;1.67;;;;;;;4.01;84.38;102075.63;5070832;28;20087;-78
2022/02/05 07:54:32;;;;;;;11.00;1.90;;;;;;;4.01;84.29;102080.81;5062880;28;20039;-78
2022/02/05 07:56:57;;;;;;;10.95;2.35;;;;;;;4.03;84.25;102085.13;5080672;28;20066;-78
2022/02/05 07:59:22;;;;;;;16.55;1.90;;;;;;;4.01;84.38;102081.66;5059710;28;20212;-78
2022/02/05 08:01:48;;;;;;;5.38;1.80;;;;;;;4.03;84.19;102073.91;5059912;28;20055;-78
2022/02/05 08:04:14;;;;;;;11.43;1.98;;;;;;;4.02;84.45;102067.88;5093648;28;20031;-78
2022/02/05 08:06:39;;;;;;;2.90;1.50;;;;;;;4.06;84.36;102065.28;5094111;28;20275;-78
2022/02/05 08:09:20;;;;;;;6.28;1.60;;;;;;;4.07;84.26;102074.78;5074313;28;20039;-78
2022/02/05 08:11:57;;;;;;;9.00;1.30;;;;;;;4.06;84.63;102076.53;5075327;28;20036;-78
2022/02/05 08:14:23;;;;;;;12.77;2.25;;;;;;;4.07;84.38;102073.06;5092894;28;20122;-78
2022/02/05 08:17:04;;;;;;;16.08;2.42;;;;;;;4.10;84.48;102069.63;5075939;28;20043;-78
2022/02/05 08:19:29;;;;;;;8.43;1.77;;;;;;;4.15;84.59;102067.94;5077944;28;20036;-78
2022/02/05 08:21:55;;;;;;;9.27;2.10;;;;;;;4.16;84.67;102069.66;5094744;28;20040;-78
2022/02/05 08:24:20;;;;;;;5.95;1.85;;;;;;;4.15;84.58;102070.53;5073374;28;20056;-78
2022/02/05 08:26:46;;;;;;;11.40;1.55;;;;;;;4.19;84.46;102072.28;5075174;28;20036;-78
2022/02/05 08:29:13;;;;;;;12.70;1.77;;;;;;;4.20;84.34;102068.81;5050417;28;20040;-78
2022/02/05 08:31:39;;;;;;;12.35;2.85;;;;;;;4.19;84.23;102067.97;5071427;28;20247;-78
2022/02/05 08:34:04;;;;;;;15.20;3.22;;;;;;;4.21;84.24;102074.00;5090223;28;20028;-78
2022/02/05 08:36:39;;;;;;;9.98;1.83;;;;;;;4.21;84.36;102073.16;5075378;28;20077;-78
2022/02/05 08:39:05;;;;;;;10.73;2.13;;;;;;;4.22;84.37;102090.44;5089688;28;20108;-78
2022/02/05 08:41:30;;;;;;;16.90;2.13;;;;;;;4.25;84.30;102085.28;5093735;28;20051;-78
2022/02/05 08:43:56;;;;;;;11.15;2.17;;;;;;;4.29;83.98;102099.97;5075079;28;20040;-78
2022/02/05 08:46:21;;;;;;;8.32;1.40;;;;;;;4.31;83.96;102105.19;5093566;28;20401;-78
2022/02/05 08:48:46;;;;;;;5.95;1.05;;;;;;;4.35;83.78;102113.00;5092793;28;20023;-78
2022/02/05 08:51:14;;;;;;;9.57;1.73;;;;;;;4.38;83.51;102117.31;5032228;28;20029;-78
2022/02/05 08:53:40;;;;;;;6.03;1.63;;;;;;;4.40;83.61;102120.78;5059212;28;20063;-78
2022/02/05 08:56:05;;;;;;;10.55;1.50;;;;;;;4.41;83.50;102126.00;5069751;28;20094;-78
2022/02/05 08:58:31;;;;;;;10.98;1.77;;;;;;;4.45;83.36;102136.41;5047129;28;20045;-78
2022/02/05 09:01:19;;;;;;;6.97;1.50;;;;;;;4.47;83.47;102139.84;5063081;28;20033;-78
2022/02/05 09:06:33;;;;;;;6.45;1.42;;;;;;;4.50;83.09;102151.13;5059854;28;20077;-78
2022/02/05 09:09:21;;;;;;;6.40;1.75;;;;;;;4.52;83.13;102152.00;5080527;28;20378;-78
2022/02/05 09:11:54;;;;;;;16.35;1.85;;;;;;;4.55;82.88;102141.66;5081655;28;20024;-78
2022/02/05 09:16:50;;;;;;;6.80;1.70;;;;;;;4.57;82.97;102133.88;5075955;28;20130;-78
2022/02/05 09:19:16;;;;;;;10.25;2.25;;;;;;;4.57;82.71;102124.34;5067696;28;20067;-78
2022/02/05 09:21:42;;;;;;;11.13;2.53;;;;;;;4.58;82.63;102136.47;5062229;28;20024;-78
2022/02/05 09:24:08;;;;;;;6.78;1.50;;;;;;;4.62;82.62;102134.78;5058456;28;20044;-78
2022/02/05 09:26:39;;;;;;;9.10;1.35;;;;;;;4.65;82.81;102128.72;5071364;28;20028;-78
2022/02/05 09:29:13;;;;;;;8.73;1.70;;;;;;;4.66;82.72;102135.63;5081589;28;20111;-78
2022/02/05 09:31:38;;;;;;;10.23;2.17;;;;;;;4.69;82.73;102120.94;5066525;28;20319;-78
2022/02/05 09:34:07;;;;;;;9.27;1.77;;;;;;;4.72;82.61;102115.75;5079992;28;20052;-78
2022/02/05 09:36:37;;;;;;;10.90;2.00;;;;;;;4.74;82.48;102116.63;5072972;28;20047;-78
2022/02/05 09:39:03;;;;;;;11.68;2.00;;;;;;;4.78;81.91;102104.53;5067947;28;20071;-78
2022/02/05 09:41:28;;;;;;;6.78;1.42;;;;;;;4.80;81.44;102126.16;5060834;28;20040;-78
2022/02/05 09:43:54;;;;;;;16.23;2.08;;;;;;;4.82;81.17;102111.50;5049326;28;20063;-78
2022/02/05 09:46:21;;;;;;;7.40;1.45;;;;;;;4.84;80.85;102116.66;5066522;28;20040;-78
2022/02/05 09:48:49;;;;;;;10.40;1.38;;;;;;;4.87;80.94;102108.91;5083998;28;20030;-78
2022/02/05 09:51:18;;;;;;;10.45;1.83;;;;;;;4.91;80.76;102110.63;5079862;28;20032;-78
2022/02/05 09:53:55;;;;;;;8.00;2.00;;;;;;;4.95;81.23;102117.59;5070623;28;20028;-78
2022/02/05 09:56:24;;;;;;;5.90;1.20;;;;;;;4.98;80.94;102110.69;5084456;28;20043;-78
2022/02/05 09:58:50;;;;;;;13.48;2.17;;;;;;;5.02;81.21;102106.38;5080750;28;20027;-78
2022/02/05 10:01:20;;;;;;;5.72;1.77;;;;;;;5.06;80.94;102107.22;5063513;28;20035;-78
2022/02/05 10:03:46;;;;;;;10.63;2.15;;;;;;;5.09;80.62;102115.00;5077426;28;20036;-78
2022/02/05 10:06:40;;;;;;;8.32;1.48;;;;;;;5.12;80.75;102117.63;5073513;28;20039;-78
2022/02/05 10:09:11;;;;;;;9.60;2.22;;;;;;;5.17;80.92;102105.53;5091903;28;20167;-78
2022/02/05 10:12:02;;;;;;;8.90;1.45;;;;;;;5.22;80.79;102102.91;5081859;28;20024;-78
2022/02/05 10:14:29;;;;;;;11.02;1.65;;;;;;;5.27;80.58;102111.59;5093321;28;20359;-78
2022/02/05 10:16:56;;;;;;;13.48;1.77;;;;;;;5.32;80.78;102108.13;5084963;28;20197;-78
2022/02/05 10:19:41;;;;;;;9.35;1.27;;;;;;;5.36;79.46;102111.59;5059066;28;20028;-78
2022/02/05 10:22:07;;;;;;;19.17;2.67;;;;;;;5.37;79.61;102100.34;5087236;28;20485;-78
2022/02/05 10:24:32;;;;;;;9.20;1.48;;;;;;;5.43;79.85;102096.91;5060486;28;20039;-78
2022/02/05 10:26:58;;;;;;;9.52;1.10;;;;;;;5.45;79.60;102101.22;5092581;28;20048;-78
2022/02/05 10:29:23;;;;;;;5.28;1.30;;;;;;;5.47;79.33;102111.63;5073728;28;20063;-78
2022/02/05 10:32:09;;;;;;;8.80;1.55;;;;;;;5.47;79.21;102112.47;5058726;28;20033;-78
2022/02/05 10:35:06;;;;;;;6.68;1.50;;;;;;;5.45;79.18;102127.19;5057990;28;20028;-78
2022/02/05 10:37:48;;;;;;;11.60;1.98;;;;;;;5.47;79.32;102114.22;5085698;28;20093;-78
2022/02/05 10:40:20;;;;;;;5.75;1.25;;;;;;;5.45;78.70;102126.34;5090098;28;20031;-78
2022/02/05 10:43:05;;;;;;;7.88;1.60;;;;;;;5.44;78.78;102109.91;5073590;28;20016;-78
2022/02/05 10:45:48;;;;;;;11.57;1.55;;;;;;;5.43;79.30;102112.50;5085891;28;20047;-78
2022/02/05 10:48:17;;;;;;;6.55;1.38;;;;;;;5.44;78.95;102102.09;5093570;28;20040;-78
2022/02/05 10:50:44;;;;;;;10.15;1.65;;;;;;;5.45;79.09;102100.34;5091740;28;20039;-78
2022/02/05 10:53:21;;;;;;;11.15;1.65;;;;;;;5.46;79.05;102100.38;5079984;28;20035;-78
2022/02/05 10:58:31;;;;;;;6.57;1.35;;;;;;;5.48;77.89;102098.63;5089683;28;20032;-78
2022/02/05 11:07:16;;;;;;;11.50;2.03;;;;;;;5.52;78.40;102107.31;5090154;28;20042;-78
2022/02/05 11:09:44;;;;;;;7.45;1.63;;;;;;;5.55;78.53;102100.38;5089319;28;20036;-78
2022/02/05 11:20:23;;;;;;;14.38;1.95;;;;;;;5.58;78.75;102091.69;5092004;28;20048;-78
2022/02/05 11:22:55;;;;;;;11.88;1.75;;;;;;;5.64;78.71;102093.44;5074362;28;20263;-78
2022/02/05 11:25:21;;;;;;;10.75;1.77;;;;;;;5.67;79.65;102088.22;5082888;28;20145;-78
2022/02/05 11:27:52;;;;;;;17.10;2.47;;;;;;;5.72;78.60;102078.72;5074299;28;20039;-78
2022/02/05 11:30:27;;;;;;;7.25;1.80;;;;;;;5.77;77.32;102072.63;5094124;28;20020;-78
2022/02/05 11:32:54;;;;;;;10.23;1.70;;;;;;;5.76;76.86;102060.50;5090015;28;20089;-78
2022/02/05 11:35:33;;;;;;;9.57;1.48;;;;;;;5.74;76.65;102072.63;5080539;28;20413;-78
2022/02/05 11:38:01;;;;;;;14.77;1.58;;;;;;;5.74;76.20;102058.78;5091711;28;20370;-78
2022/02/05 11:40:42;;;;;;;6.07;2.05;;;;;;;5.72;77.01;102056.16;5090860;28;20036;-78
2022/02/05 11:43:29;;;;;;;8.52;1.88;;;;;;;5.72;77.32;102050.13;5093716;28;20035;-78
2022/02/05 11:46:04;;;;;;;6.45;1.33;;;;;;;5.70;77.57;102059.66;5076213;28;20032;-78
2022/02/05 11:48:44;;;;;;;9.13;1.02;;;;;;;5.71;78.36;102059.66;5077010;28;20051;-78
2022/02/05 11:51:33;;;;;;;9.07;2.10;;;;;;;5.73;79.54;102057.03;5091982;28;20151;-78
2022/02/05 11:54:05;;;;;;;9.77;1.92;;;;;;;5.75;80.24;102053.56;5075117;28;20382;-78
2022/02/05 11:59:55;;;;;;;9.38;2.08;;;;;;;5.80;80.89;102058.75;5078159;28;20303;-78
2022/02/05 12:02:22;;;;;;;14.55;2.88;;;;;;;5.83;80.82;102066.56;5076709;28;20036;-78
2022/02/05 12:05:13;;;;;;;13.93;2.20;;;;;;;5.84;80.35;102044.00;5094122;28;20355;-78
2022/02/05 12:07:57;;;;;;;14.68;2.17;;;;;;;5.81;80.66;102026.69;5095684;28;20382;-78
2022/02/05 12:10:41;;;;;;;8.20;1.38;;;;;;;5.81;81.10;102031.91;5094339;28;20028;-78
2022/02/05 12:13:27;;;;;;;5.25;1.33;;;;;;;5.82;80.24;102031.03;5079070;28;20063;-78
2022/02/05 12:15:55;;;;;;;12.00;2.50;;;;;;;5.83;80.29;102022.38;5078388;28;20024;-78
2022/02/05 12:20:50;;;;;;;9.13;1.65;;;;;;;5.92;79.95;102019.75;5096508;28;20052;-78
2022/02/05 12:25:59;;;;;;;7.75;1.23;;;;;;;5.95;79.71;102008.47;5094971;28;20032;-78
2022/02/05 12:28:44;;;;;;;11.23;1.90;;;;;;;5.98;80.25;102005.88;5081585;28;20027;-79
2022/02/05 12:31:18;;;;;;;6.68;1.38;;;;;;;6.00;79.89;102013.69;5082590;28;20208;-79
2022/02/05 12:33:54;;;;;;;12.75;1.50;;;;;;;6.03;79.13;102017.16;5092687;28;20350;-79
2022/02/05 12:36:44;;;;;;;10.55;2.33;;;;;;;6.05;79.37;102007.59;5081626;28;20228;-79
2022/02/05 12:39:15;;;;;;;12.57;1.63;;;;;;;6.08;79.26;101998.94;5092303;28;20331;-79
2022/02/05 12:41:51;;;;;;;6.28;1.63;;;;;;;6.10;78.87;102002.41;5080387;28;20240;-79
2022/02/05 12:44:22;;;;;;;11.05;1.95;;;;;;;6.10;78.55;102003.25;5093361;28;20038;-79
2022/02/05 12:47:07;;;;;;;9.93;2.00;;;;;;;6.12;78.27;101995.44;5062413;28;20032;-79
2022/02/05 12:49:55;;;;;;;7.50;1.30;;;;;;;6.14;78.20;101986.75;5063050;28;20025;-79
2022/02/05 12:52:23;;;;;;;9.57;1.52;;;;;;;6.13;78.05;101997.16;5065869;28;20100;-79
2022/02/05 12:54:55;;;;;;;13.77;2.08;;;;;;;6.14;78.16;101996.31;5072891;28;20024;-79
2022/02/05 12:57:20;;;;;;;8.88;1.17;;;;;;;6.15;77.53;101985.91;5084013;28;20020;-79
2022/02/05 12:59:46;;;;;;;6.07;1.48;;;;;;;6.18;77.08;101986.75;5080379;28;20226;-79
2022/02/05 13:02:15;;;;;;;11.20;1.60;;;;;;;6.22;76.94;101985.88;5082237;28;20062;-79
2022/02/05 13:04:42;;;;;;;9.15;1.88;;;;;;;6.25;77.98;101991.06;5094658;28;20036;-79
2022/02/05 13:07:13;;;;;;;6.38;1.35;;;;;;;6.25;78.09;101973.72;5090456;28;20043;-79
2022/02/05 13:09:55;;;;;;;6.13;1.40;;;;;;;6.27;78.98;101973.69;5075546;28;20058;-79
2022/02/05 13:12:26;;;;;;;7.05;1.65;;;;;;;6.25;78.87;101963.31;5082952;28;20294;-79
2022/02/05 13:15:02;;;;;;;13.13;2.03;;;;;;;6.28;78.78;101975.44;5070382;28;20066;-79
2022/02/05 13:26:08;;;;;;;11.70;2.20;;;;;;;6.43;79.84;101943.28;5068465;28;20086;-78
2022/02/05 13:36:18;;;;;;;18.75;2.00;;;;;;;6.52;79.06;101954.47;5061607;28;20057;-79
2022/02/05 13:41:37;;;;;;;12.07;1.67;;;;;;;6.52;79.51;101935.41;5028644;28;20059;-79
2022/02/05 13:44:02;;;;;;;11.88;1.88;;;;;;;6.52;79.44;101914.59;5039575;28;20032;-79
2022/02/05 13:46:28;;;;;;;6.53;1.58;;;;;;;6.52;79.98;101909.38;5063353;28;20380;-79
2022/02/05 13:48:53;;;;;;;12.05;1.90;;;;;;;6.55;79.55;101909.38;5050613;28;20270;-79
2022/02/05 13:51:19;;;;;;;13.85;2.15;;;;;;;6.59;79.19;101928.44;5084255;28;20037;-79
2022/02/05 13:53:52;;;;;;;15.77;1.75;;;;;;;6.62;78.70;101913.66;5088037;28;20039;-79
2022/02/05 13:56:18;;;;;;;17.13;2.08;;;;;;;6.62;79.43;101912.78;5076844;28;20332;-79
2022/02/05 13:58:44;;;;;;;14.63;1.88;;;;;;;6.60;79.79;101904.97;5082889;28;20336;-79
2022/02/05 14:01:25;;;;;;;6.93;1.52;;;;;;;6.62;79.82;101908.47;5082406;28;20050;-79
2022/02/05 14:03:50;;;;;;;11.43;2.05;;;;;;;6.64;79.10;101913.63;5088539;28;20067;-79
2022/02/05 14:06:16;;;;;;;8.70;2.03;;;;;;;6.65;79.30;101912.75;5051413;28;20311;-79
2022/02/05 14:08:47;;;;;;;12.30;2.13;;;;;;;6.65;78.73;101917.97;5070181;28;20331;-79
2022/02/05 14:11:15;;;;;;;17.55;2.05;;;;;;;6.65;78.82;101907.56;5065275;28;20492;-79
2022/02/05 14:13:41;;;;;;;8.25;1.50;;;;;;;6.63;78.99;101899.75;5091098;28;20036;-79
2022/02/05 14:16:08;;;;;;;12.43;1.38;;;;;;;6.64;79.50;101887.59;5088318;28;20036;-78
2022/02/05 14:18:57;;;;;;;6.78;1.77;;;;;;;6.66;78.97;101894.53;5059179;28;20032;-79
2022/02/05 14:21:44;;;;;;;10.25;1.85;;;;;;;6.69;79.20;101894.53;5070982;28;20043;-79
2022/02/05 14:24:17;;;;;;;19.23;2.08;;;;;;;6.68;78.76;101882.38;5065903;28;20035;-79
2022/02/05 14:26:54;;;;;;;10.77;1.52;;;;;;;6.68;79.04;101879.75;5061350;28;20056;-79
2022/02/05 14:29:21;;;;;;;11.82;1.85;;;;;;;6.68;79.25;101874.56;5063681;28;20258;-79
2022/02/05 14:31:51;;;;;;;10.50;1.70;;;;;;;6.68;79.41;101884.13;5062336;28;20048;-79
2022/02/05 14:34:20;;;;;;;21.27;2.80;;;;;;;6.67;79.38;101896.25;5059675;28;20047;-79
2022/02/05 14:42:11;;;;;;;19.40;2.13;;;;;;;6.68;78.91;101869.34;5088242;28;20105;-79
2022/02/05 14:44:37;;;;;;;9.40;1.70;;;;;;;6.68;79.43;101876.31;5085460;28;20324;-79
2022/02/05 14:47:05;;;;;;;15.18;1.58;;;;;;;6.69;79.08;101870.22;5085872;28;20036;-79
2022/02/05 14:49:30;;;;;;;11.68;1.38;;;;;;;6.68;79.33;101851.13;5071344;28;20032;-78